sensor_id;sensor_type;location;lat;lon;timestamp;P1;durP1;ratioP1;P2;durP2;ratioP2
38499;SDS011;24269;51.894;4.622;2022-07-04T00:00:11;6.93;;;2.20;;
38499;SDS011;24269;51.894;4.622;2022-07-04T00:02:37;11.18;;;2.00;;
38499;SDS011;24269;51.894;4.622;2022-07-04T00:05:04;8.75;;;2.42;;
38499;SDS011;24269;51.894;4.622;2022-07-04T00:07:35;9.70;;;2.08;;
38499;SDS011;24269;51.894;4.622;2022-07-04T00:10:09;7.60;;;2.30;;
38499;SDS011;24269;51.894;4.622;2022-07-04T00:12:36;10.23;;;2.45;;
38499;SDS011;24269;51.894;4.622;2022-07-04T00:15:03;9.80;;;2.00;;
38499;SDS011;24269;51.894;4.622;2022-07-04T00:17:30;10.20;;;2.17;;
38499;SDS011;24269;51.894;4.622;2022-07-04T00:19:56;7.65;;;2.28;;
38499;SDS011;24269;51.894;4.622;2022-07-04T00:22:22;7.63;;;2.40;;
38499;SDS011;24269;51.894;4.622;2022-07-04T00:24:47;6.95;;;2.45;;
38499;SDS011;24269;51.894;4.622;2022-07-04T00:27:13;9.80;;;2.63;;
38499;SDS011;24269;51.894;4.622;2022-07-04T00:29:39;7.63;;;2.20;;
38499;SDS011;24269;51.894;4.622;2022-07-04T00:32:04;8.00;;;2.17;;
38499;SDS011;24269;51.894;4.622;2022-07-04T00:34:30;9.77;;;2.05;;
38499;SDS011;24269;51.894;4.622;2022-07-04T00:36:56;6.90;;;2.00;;
38499;SDS011;24269;51.894;4.622;2022-07-04T00:39:22;7.88;;;2.20;;
38499;SDS011;24269;51.894;4.622;2022-07-04T00:41:47;10.25;;;2.13;;
38499;SDS011;24269;51.894;4.622;2022-07-04T00:44:13;8.73;;;2.15;;
38499;SDS011;24269;51.894;4.622;2022-07-04T00:46:41;8.05;;;2.30;;
38499;SDS011;24269;51.894;4.622;2022-07-04T00:49:08;11.40;;;2.85;;
38499;SDS011;24269;51.894;4.622;2022-07-04T00:51:35;5.90;;;2.55;;
38499;SDS011;24269;51.894;4.622;2022-07-04T00:54:03;6.38;;;2.25;;
38499;SDS011;24269;51.894;4.622;2022-07-04T00:56:30;8.38;;;2.40;;
38499;SDS011;24269;51.894;4.622;2022-07-04T00:58:56;11.20;;;2.90;;
38499;SDS011;24269;51.894;4.622;2022-07-04T01:01:24;8.00;;;2.55;;
38499;SDS011;24269;51.894;4.622;2022-07-04T01:03:50;8.25;;;2.10;;
38499;SDS011;24269;51.894;4.622;2022-07-04T01:06:16;7.22;;;2.22;;
38499;SDS011;24269;51.894;4.622;2022-07-04T01:08:43;10.15;;;3.05;;
38499;SDS011;24269;51.894;4.622;2022-07-04T01:11:10;10.57;;;2.70;;
38499;SDS011;24269;51.894;4.622;2022-07-04T01:13:35;10.30;;;2.38;;
38499;SDS011;24269;51.894;4.622;2022-07-04T01:16:02;10.60;;;2.40;;
38499;SDS011;24269;51.894;4.622;2022-07-04T01:18:29;12.88;;;3.15;;
38499;SDS011;24269;51.894;4.622;2022-07-04T01:20:55;12.18;;;2.72;;
38499;SDS011;24269;51.894;4.622;2022-07-04T01:23:21;9.45;;;2.88;;
38499;SDS011;24269;51.894;4.622;2022-07-04T01:25:46;9.23;;;3.10;;
38499;SDS011;24269;51.894;4.622;2022-07-04T01:28:15;9.52;;;3.22;;
38499;SDS011;24269;51.894;4.622;2022-07-04T01:30:41;8.93;;;2.75;;
38499;SDS011;24269;51.894;4.622;2022-07-04T01:33:07;11.77;;;2.55;;
38499;SDS011;24269;51.894;4.622;2022-07-04T01:35:32;9.15;;;2.60;;
38499;SDS011;24269;51.894;4.622;2022-07-04T01:37:58;9.77;;;2.47;;
38499;SDS011;24269;51.894;4.622;2022-07-04T01:40:24;8.50;;;2.70;;
38499;SDS011;24269;51.894;4.622;2022-07-04T01:42:49;7.07;;;2.30;;
38499;SDS011;24269;51.894;4.622;2022-07-04T01:45:15;10.23;;;2.63;;
38499;SDS011;24269;51.894;4.622;2022-07-04T01:47:41;9.32;;;2.72;;
38499;SDS011;24269;51.894;4.622;2022-07-04T01:50:08;8.15;;;2.25;;
38499;SDS011;24269;51.894;4.622;2022-07-04T01:52:37;7.38;;;2.30;;
38499;SDS011;24269;51.894;4.622;2022-07-04T01:55:03;10.25;;;2.88;;
38499;SDS011;24269;51.894;4.622;2022-07-04T01:57:29;10.07;;;2.92;;
38499;SDS011;24269;51.894;4.622;2022-07-04T01:59:55;10.73;;;2.55;;
38499;SDS011;24269;51.894;4.622;2022-07-04T02:02:39;10.80;;;2.70;;
38499;SDS011;24269;51.894;4.622;2022-07-04T02:05:05;9.02;;;3.10;;
38499;SDS011;24269;51.894;4.622;2022-07-04T02:07:30;10.23;;;2.65;;
38499;SDS011;24269;51.894;4.622;2022-07-04T02:09:56;9.07;;;2.90;;
38499;SDS011;24269;51.894;4.622;2022-07-04T02:12:21;9.80;;;3.08;;
38499;SDS011;24269;51.894;4.622;2022-07-04T02:15:06;11.48;;;2.95;;
38499;SDS011;24269;51.894;4.622;2022-07-04T02:17:32;10.35;;;3.03;;
38499;SDS011;24269;51.894;4.622;2022-07-04T02:19:58;9.18;;;3.35;;
38499;SDS011;24269;51.894;4.622;2022-07-04T02:22:24;11.20;;;3.45;;
38499;SDS011;24269;51.894;4.622;2022-07-04T02:24:50;10.80;;;3.30;;
38499;SDS011;24269;51.894;4.622;2022-07-04T02:27:16;10.85;;;3.85;;
38499;SDS011;24269;51.894;4.622;2022-07-04T02:29:41;12.20;;;4.00;;
38499;SDS011;24269;51.894;4.622;2022-07-04T02:32:08;10.10;;;4.20;;
38499;SDS011;24269;51.894;4.622;2022-07-04T02:34:34;11.93;;;4.22;;
38499;SDS011;24269;51.894;4.622;2022-07-04T02:36:59;14.65;;;5.13;;
38499;SDS011;24269;51.894;4.622;2022-07-04T02:39:25;14.25;;;4.20;;
38499;SDS011;24269;51.894;4.622;2022-07-04T02:41:51;10.50;;;4.47;;
38499;SDS011;24269;51.894;4.622;2022-07-04T02:44:16;9.98;;;4.20;;
38499;SDS011;24269;51.894;4.622;2022-07-04T02:46:42;9.75;;;4.43;;
38499;SDS011;24269;51.894;4.622;2022-07-04T02:49:08;11.02;;;4.60;;
38499;SDS011;24269;51.894;4.622;2022-07-04T02:51:33;13.73;;;5.15;;
38499;SDS011;24269;51.894;4.622;2022-07-04T02:53:59;13.45;;;4.97;;
38499;SDS011;24269;51.894;4.622;2022-07-04T02:56:25;9.82;;;4.72;;
38499;SDS011;24269;51.894;4.622;2022-07-04T02:58:51;11.55;;;5.10;;
38499;SDS011;24269;51.894;4.622;2022-07-04T03:01:17;12.05;;;5.20;;
38499;SDS011;24269;51.894;4.622;2022-07-04T03:03:44;12.82;;;5.40;;
38499;SDS011;24269;51.894;4.622;2022-07-04T03:06:10;12.90;;;5.25;;
38499;SDS011;24269;51.894;4.622;2022-07-04T03:08:36;13.65;;;5.20;;
38499;SDS011;24269;51.894;4.622;2022-07-04T03:11:03;15.45;;;5.65;;
38499;SDS011;24269;51.894;4.622;2022-07-04T03:13:28;12.77;;;5.40;;
38499;SDS011;24269;51.894;4.622;2022-07-04T03:15:54;13.18;;;5.32;;
38499;SDS011;24269;51.894;4.622;2022-07-04T03:18:20;11.27;;;5.00;;
38499;SDS011;24269;51.894;4.622;2022-07-04T03:20:46;12.93;;;4.88;;
38499;SDS011;24269;51.894;4.622;2022-07-04T03:23:12;12.02;;;4.90;;
38499;SDS011;24269;51.894;4.622;2022-07-04T03:25:38;10.88;;;4.13;;
38499;SDS011;24269;51.894;4.622;2022-07-04T03:28:05;7.80;;;4.22;;
38499;SDS011;24269;51.894;4.622;2022-07-04T03:30:31;13.05;;;4.32;;
38499;SDS011;24269;51.894;4.622;2022-07-04T03:32:57;9.73;;;4.25;;
38499;SDS011;24269;51.894;4.622;2022-07-04T03:35:23;9.57;;;3.75;;
38499;SDS011;24269;51.894;4.622;2022-07-04T03:37:49;11.70;;;4.07;;
38499;SDS011;24269;51.894;4.622;2022-07-04T03:40:16;10.50;;;4.13;;
38499;SDS011;24269;51.894;4.622;2022-07-04T03:42:42;10.80;;;3.85;;
38499;SDS011;24269;51.894;4.622;2022-07-04T03:45:07;10.20;;;4.20;;
38499;SDS011;24269;51.894;4.622;2022-07-04T03:47:34;12.52;;;3.75;;
38499;SDS011;24269;51.894;4.622;2022-07-04T03:49:59;9.75;;;3.80;;
38499;SDS011;24269;51.894;4.622;2022-07-04T03:52:25;9.27;;;3.35;;
38499;SDS011;24269;51.894;4.622;2022-07-04T03:54:51;12.63;;;3.60;;
38499;SDS011;24269;51.894;4.622;2022-07-04T03:57:16;9.00;;;3.50;;
38499;SDS011;24269;51.894;4.622;2022-07-04T03:59:42;10.00;;;3.40;;
38499;SDS011;24269;51.894;4.622;2022-07-04T04:02:08;15.45;;;3.50;;
38499;SDS011;24269;51.894;4.622;2022-07-04T04:04:33;10.45;;;3.55;;
38499;SDS011;24269;51.894;4.622;2022-07-04T04:07:18;12.77;;;3.75;;
38499;SDS011;24269;51.894;4.622;2022-07-04T04:09:43;11.65;;;3.13;;
38499;SDS011;24269;51.894;4.622;2022-07-04T04:12:09;9.05;;;3.28;;
38499;SDS011;24269;51.894;4.622;2022-07-04T04:14:35;12.18;;;4.18;;
38499;SDS011;24269;51.894;4.622;2022-07-04T04:17:01;10.27;;;3.50;;
38499;SDS011;24269;51.894;4.622;2022-07-04T04:19:26;13.38;;;3.78;;
38499;SDS011;24269;51.894;4.622;2022-07-04T04:21:52;15.63;;;4.05;;
38499;SDS011;24269;51.894;4.622;2022-07-04T04:24:17;9.60;;;4.10;;
38499;SDS011;24269;51.894;4.622;2022-07-04T04:26:43;12.38;;;4.07;;
38499;SDS011;24269;51.894;4.622;2022-07-04T04:29:09;13.68;;;4.05;;
38499;SDS011;24269;51.894;4.622;2022-07-04T04:31:35;13.50;;;4.32;;
38499;SDS011;24269;51.894;4.622;2022-07-04T04:34:01;13.93;;;5.15;;
38499;SDS011;24269;51.894;4.622;2022-07-04T04:36:27;9.25;;;4.15;;
38499;SDS011;24269;51.894;4.622;2022-07-04T04:38:52;13.93;;;4.50;;
38499;SDS011;24269;51.894;4.622;2022-07-04T04:41:18;13.70;;;5.00;;
38499;SDS011;24269;51.894;4.622;2022-07-04T04:43:44;14.27;;;4.75;;
38499;SDS011;24269;51.894;4.622;2022-07-04T04:46:09;11.25;;;4.72;;
38499;SDS011;24269;51.894;4.622;2022-07-04T04:48:35;10.68;;;4.18;;
38499;SDS011;24269;51.894;4.622;2022-07-04T04:51:00;10.82;;;4.28;;
38499;SDS011;24269;51.894;4.622;2022-07-04T04:53:26;14.07;;;4.60;;
38499;SDS011;24269;51.894;4.622;2022-07-04T04:55:52;11.02;;;3.95;;
38499;SDS011;24269;51.894;4.622;2022-07-04T04:58:21;12.13;;;4.03;;
38499;SDS011;24269;51.894;4.622;2022-07-04T05:00:47;11.63;;;3.75;;
38499;SDS011;24269;51.894;4.622;2022-07-04T05:03:14;12.82;;;3.97;;
38499;SDS011;24269;51.894;4.622;2022-07-04T05:05:43;9.90;;;4.53;;
38499;SDS011;24269;51.894;4.622;2022-07-04T05:08:10;10.30;;;4.13;;
38499;SDS011;24269;51.894;4.622;2022-07-04T05:10:37;10.48;;;3.55;;
38499;SDS011;24269;51.894;4.622;2022-07-04T05:13:03;10.02;;;3.90;;
38499;SDS011;24269;51.894;4.622;2022-07-04T05:15:29;10.00;;;4.05;;
38499;SDS011;24269;51.894;4.622;2022-07-04T05:17:55;13.30;;;3.65;;
38499;SDS011;24269;51.894;4.622;2022-07-04T05:20:20;9.82;;;3.60;;
38499;SDS011;24269;51.894;4.622;2022-07-04T05:22:46;10.25;;;3.65;;
38499;SDS011;24269;51.894;4.622;2022-07-04T05:25:12;13.68;;;3.58;;
38499;SDS011;24269;51.894;4.622;2022-07-04T05:27:38;12.02;;;3.55;;
38499;SDS011;24269;51.894;4.622;2022-07-04T05:30:05;11.98;;;3.53;;
38499;SDS011;24269;51.894;4.622;2022-07-04T05:32:31;11.90;;;3.50;;
38499;SDS011;24269;51.894;4.622;2022-07-04T05:34:57;9.80;;;3.63;;
38499;SDS011;24269;51.894;4.622;2022-07-04T05:37:23;9.70;;;3.60;;
38499;SDS011;24269;51.894;4.622;2022-07-04T05:39:48;13.60;;;4.05;;
38499;SDS011;24269;51.894;4.622;2022-07-04T05:42:15;11.45;;;3.65;;
38499;SDS011;24269;51.894;4.622;2022-07-04T05:44:41;7.95;;;3.70;;
38499;SDS011;24269;51.894;4.622;2022-07-04T05:47:07;10.32;;;3.83;;
38499;SDS011;24269;51.894;4.622;2022-07-04T05:49:33;11.95;;;3.63;;
38499;SDS011;24269;51.894;4.622;2022-07-04T05:51:58;14.93;;;4.00;;
38499;SDS011;24269;51.894;4.622;2022-07-04T05:54:24;11.27;;;4.07;;
38499;SDS011;24269;51.894;4.622;2022-07-04T05:56:50;17.30;;;3.95;;
38499;SDS011;24269;51.894;4.622;2022-07-04T05:59:16;10.10;;;3.88;;
38499;SDS011;24269;51.894;4.622;2022-07-04T06:01:41;13.38;;;4.07;;
38499;SDS011;24269;51.894;4.622;2022-07-04T06:04:07;11.82;;;4.18;;
38499;SDS011;24269;51.894;4.622;2022-07-04T06:06:33;11.43;;;3.65;;
38499;SDS011;24269;51.894;4.622;2022-07-04T06:08:59;12.93;;;3.90;;
38499;SDS011;24269;51.894;4.622;2022-07-04T06:11:25;13.32;;;4.15;;
38499;SDS011;24269;51.894;4.622;2022-07-04T06:13:51;14.65;;;3.83;;
38499;SDS011;24269;51.894;4.622;2022-07-04T06:16:17;13.00;;;3.90;;
38499;SDS011;24269;51.894;4.622;2022-07-04T06:18:43;12.00;;;4.30;;
38499;SDS011;24269;51.894;4.622;2022-07-04T06:21:09;10.30;;;3.95;;
38499;SDS011;24269;51.894;4.622;2022-07-04T06:23:35;10.00;;;3.78;;
38499;SDS011;24269;51.894;4.622;2022-07-04T06:26:01;13.65;;;3.83;;
38499;SDS011;24269;51.894;4.622;2022-07-04T06:28:27;8.95;;;3.45;;
38499;SDS011;24269;51.894;4.622;2022-07-04T06:30:54;13.23;;;4.32;;
38499;SDS011;24269;51.894;4.622;2022-07-04T06:33:19;12.43;;;4.22;;
38499;SDS011;24269;51.894;4.622;2022-07-04T06:35:45;9.50;;;3.80;;
38499;SDS011;24269;51.894;4.622;2022-07-04T06:38:20;12.35;;;4.20;;
38499;SDS011;24269;51.894;4.622;2022-07-04T06:40:50;14.95;;;4.20;;
38499;SDS011;24269;51.894;4.622;2022-07-04T06:43:19;17.20;;;4.10;;
38499;SDS011;24269;51.894;4.622;2022-07-04T06:45:45;10.57;;;3.72;;
38499;SDS011;24269;51.894;4.622;2022-07-04T06:48:11;13.18;;;3.85;;
38499;SDS011;24269;51.894;4.622;2022-07-04T06:50:37;13.82;;;3.92;;
38499;SDS011;24269;51.894;4.622;2022-07-04T06:53:03;11.40;;;3.65;;
38499;SDS011;24269;51.894;4.622;2022-07-04T06:55:31;12.45;;;3.85;;
38499;SDS011;24269;51.894;4.622;2022-07-04T06:57:58;10.98;;;4.18;;
38499;SDS011;24269;51.894;4.622;2022-07-04T07:00:24;15.15;;;4.13;;
38499;SDS011;24269;51.894;4.622;2022-07-04T07:02:50;10.88;;;3.30;;
38499;SDS011;24269;51.894;4.622;2022-07-04T07:05:15;9.98;;;3.60;;
38499;SDS011;24269;51.894;4.622;2022-07-04T07:07:41;10.52;;;3.20;;
38499;SDS011;24269;51.894;4.622;2022-07-04T07:10:07;8.60;;;3.10;;
38499;SDS011;24269;51.894;4.622;2022-07-04T07:12:33;10.02;;;3.42;;
38499;SDS011;24269;51.894;4.622;2022-07-04T07:14:59;10.75;;;3.45;;
38499;SDS011;24269;51.894;4.622;2022-07-04T07:17:26;10.85;;;3.17;;
38499;SDS011;24269;51.894;4.622;2022-07-04T07:19:52;9.35;;;2.80;;
38499;SDS011;24269;51.894;4.622;2022-07-04T07:22:18;8.82;;;3.05;;
38499;SDS011;24269;51.894;4.622;2022-07-04T07:24:44;10.98;;;2.95;;
38499;SDS011;24269;51.894;4.622;2022-07-04T07:27:10;10.05;;;3.10;;
38499;SDS011;24269;51.894;4.622;2022-07-04T07:29:36;8.88;;;2.95;;
38499;SDS011;24269;51.894;4.622;2022-07-04T07:32:02;10.77;;;3.15;;
38499;SDS011;24269;51.894;4.622;2022-07-04T07:34:29;9.77;;;2.85;;
38499;SDS011;24269;51.894;4.622;2022-07-04T07:36:55;8.38;;;3.13;;
38499;SDS011;24269;51.894;4.622;2022-07-04T07:39:21;8.80;;;3.10;;
38499;SDS011;24269;51.894;4.622;2022-07-04T07:41:47;11.95;;;3.25;;
38499;SDS011;24269;51.894;4.622;2022-07-04T07:44:12;7.85;;;2.70;;
38499;SDS011;24269;51.894;4.622;2022-07-04T07:46:38;8.75;;;3.15;;
38499;SDS011;24269;51.894;4.622;2022-07-04T07:49:04;9.38;;;2.67;;
38499;SDS011;24269;51.894;4.622;2022-07-04T07:51:30;13.18;;;3.30;;
38499;SDS011;24269;51.894;4.622;2022-07-04T07:53:56;8.80;;;2.78;;
38499;SDS011;24269;51.894;4.622;2022-07-04T07:56:22;9.45;;;2.67;;
38499;SDS011;24269;51.894;4.622;2022-07-04T07:58:48;9.02;;;2.22;;
38499;SDS011;24269;51.894;4.622;2022-07-04T08:01:14;7.15;;;1.70;;
38499;SDS011;24269;51.894;4.622;2022-07-04T08:03:40;6.93;;;1.80;;
38499;SDS011;24269;51.894;4.622;2022-07-04T08:06:24;6.32;;;1.80;;
38499;SDS011;24269;51.894;4.622;2022-07-04T08:08:50;6.72;;;2.00;;
38499;SDS011;24269;51.894;4.622;2022-07-04T08:11:16;10.25;;;1.90;;
38499;SDS011;24269;51.894;4.622;2022-07-04T08:13:41;7.10;;;1.83;;
38499;SDS011;24269;51.894;4.622;2022-07-04T08:16:07;6.30;;;1.75;;
38499;SDS011;24269;51.894;4.622;2022-07-04T08:18:33;4.55;;;1.40;;
38499;SDS011;24269;51.894;4.622;2022-07-04T08:20:59;5.43;;;1.60;;
38499;SDS011;24269;51.894;4.622;2022-07-04T08:23:25;8.30;;;1.70;;
38499;SDS011;24269;51.894;4.622;2022-07-04T08:25:52;5.30;;;1.63;;
38499;SDS011;24269;51.894;4.622;2022-07-04T08:28:17;5.80;;;1.60;;
38499;SDS011;24269;51.894;4.622;2022-07-04T08:30:43;5.72;;;1.80;;
38499;SDS011;24269;51.894;4.622;2022-07-04T08:33:09;4.70;;;1.40;;
38499;SDS011;24269;51.894;4.622;2022-07-04T08:35:34;6.20;;;1.35;;
38499;SDS011;24269;51.894;4.622;2022-07-04T08:38:00;4.80;;;1.50;;
38499;SDS011;24269;51.894;4.622;2022-07-04T08:40:26;5.97;;;1.50;;
38499;SDS011;24269;51.894;4.622;2022-07-04T08:42:53;5.38;;;1.50;;
38499;SDS011;24269;51.894;4.622;2022-07-04T08:45:26;5.22;;;1.40;;
38499;SDS011;24269;51.894;4.622;2022-07-04T08:47:55;7.60;;;1.80;;
38499;SDS011;24269;51.894;4.622;2022-07-04T08:50:26;5.55;;;1.67;;
38499;SDS011;24269;51.894;4.622;2022-07-04T08:52:59;4.95;;;1.40;;
38499;SDS011;24269;51.894;4.622;2022-07-04T08:55:25;5.25;;;1.13;;
38499;SDS011;24269;51.894;4.622;2022-07-04T08:58:18;6.03;;;1.30;;
38499;SDS011;24269;51.894;4.622;2022-07-04T09:00:54;4.82;;;1.10;;
38499;SDS011;24269;51.894;4.622;2022-07-04T09:03:30;3.72;;;1.10;;
38499;SDS011;24269;51.894;4.622;2022-07-04T09:05:57;5.30;;;1.58;;
38499;SDS011;24269;51.894;4.622;2022-07-04T09:08:24;4.45;;;1.10;;
38499;SDS011;24269;51.894;4.622;2022-07-04T09:10:50;4.40;;;1.20;;
38499;SDS011;24269;51.894;4.622;2022-07-04T09:13:17;5.45;;;1.40;;
38499;SDS011;24269;51.894;4.622;2022-07-04T09:15:44;5.18;;;1.17;;
38499;SDS011;24269;51.894;4.622;2022-07-04T09:18:21;3.35;;;1.05;;
38499;SDS011;24269;51.894;4.622;2022-07-04T09:20:51;2.03;;;0.85;;
38499;SDS011;24269;51.894;4.622;2022-07-04T09:23:19;3.60;;;1.00;;
38499;SDS011;24269;51.894;4.622;2022-07-04T09:25:47;3.33;;;1.10;;
38499;SDS011;24269;51.894;4.622;2022-07-04T09:28:25;4.90;;;1.10;;
38499;SDS011;24269;51.894;4.622;2022-07-04T09:30:52;3.30;;;1.10;;
38499;SDS011;24269;51.894;4.622;2022-07-04T09:33:18;5.22;;;1.35;;
38499;SDS011;24269;51.894;4.622;2022-07-04T09:35:44;5.30;;;1.48;;
38499;SDS011;24269;51.894;4.622;2022-07-04T09:38:10;4.82;;;1.10;;
38499;SDS011;24269;51.894;4.622;2022-07-04T09:40:38;2.78;;;1.10;;
38499;SDS011;24269;51.894;4.622;2022-07-04T09:43:24;3.67;;;1.05;;
38499;SDS011;24269;51.894;4.622;2022-07-04T09:45:57;4.75;;;1.45;;
38499;SDS011;24269;51.894;4.622;2022-07-04T09:48:26;4.75;;;1.50;;
38499;SDS011;24269;51.894;4.622;2022-07-04T09:51:12;4.53;;;1.17;;
38499;SDS011;24269;51.894;4.622;2022-07-04T09:53:37;3.97;;;1.45;;
38499;SDS011;24269;51.894;4.622;2022-07-04T09:56:03;4.88;;;1.20;;
38499;SDS011;24269;51.894;4.622;2022-07-04T09:58:29;4.10;;;1.30;;
38499;SDS011;24269;51.894;4.622;2022-07-04T10:00:58;8.07;;;1.25;;
38499;SDS011;24269;51.894;4.622;2022-07-04T10:03:33;2.50;;;0.90;;
38499;SDS011;24269;51.894;4.622;2022-07-04T10:06:13;4.18;;;1.13;;
38499;SDS011;24269;51.894;4.622;2022-07-04T10:08:41;5.15;;;1.40;;
38499;SDS011;24269;51.894;4.622;2022-07-04T10:11:08;3.20;;;1.00;;
38499;SDS011;24269;51.894;4.622;2022-07-04T10:13:35;3.75;;;1.00;;
38499;SDS011;24269;51.894;4.622;2022-07-04T10:16:01;4.63;;;1.10;;
38499;SDS011;24269;51.894;4.622;2022-07-04T10:18:27;6.53;;;0.90;;
38499;SDS011;24269;51.894;4.622;2022-07-04T10:20:54;5.00;;;1.40;;
38499;SDS011;24269;51.894;4.622;2022-07-04T10:23:21;2.88;;;0.80;;
38499;SDS011;24269;51.894;4.622;2022-07-04T10:25:49;2.22;;;0.70;;
38499;SDS011;24269;51.894;4.622;2022-07-04T10:28:18;6.55;;;0.90;;
38499;SDS011;24269;51.894;4.622;2022-07-04T10:30:49;3.13;;;0.90;;
38499;SDS011;24269;51.894;4.622;2022-07-04T10:33:22;3.10;;;0.93;;
38499;SDS011;24269;51.894;4.622;2022-07-04T10:41:05;2.03;;;0.70;;
38499;SDS011;24269;51.894;4.622;2022-07-04T10:48:52;6.35;;;1.10;;
38499;SDS011;24269;51.894;4.622;2022-07-04T10:51:38;4.45;;;1.10;;
38499;SDS011;24269;51.894;4.622;2022-07-04T10:56:40;4.90;;;1.25;;
38499;SDS011;24269;51.894;4.622;2022-07-04T10:59:27;4.95;;;0.70;;
38499;SDS011;24269;51.894;4.622;2022-07-04T11:02:21;4.05;;;1.15;;
38499;SDS011;24269;51.894;4.622;2022-07-04T11:15:56;2.80;;;0.80;;
38499;SDS011;24269;51.894;4.622;2022-07-04T11:18:09;7.18;;;0.90;;
38499;SDS011;24269;51.894;4.622;2022-07-04T11:20:36;4.33;;;0.83;;
38499;SDS011;24269;51.894;4.622;2022-07-04T11:23:09;2.30;;;0.80;;
38499;SDS011;24269;51.894;4.622;2022-07-04T11:25:36;3.00;;;0.88;;
38499;SDS011;24269;51.894;4.622;2022-07-04T11:28:21;4.22;;;0.90;;
38499;SDS011;24269;51.894;4.622;2022-07-04T11:30:48;3.63;;;1.00;;
38499;SDS011;24269;51.894;4.622;2022-07-04T11:33:18;1.17;;;0.60;;
38499;SDS011;24269;51.894;4.622;2022-07-04T11:36:00;3.63;;;0.90;;
38499;SDS011;24269;51.894;4.622;2022-07-04T11:38:48;3.70;;;0.90;;
38499;SDS011;24269;51.894;4.622;2022-07-04T11:41:22;2.95;;;0.80;;
38499;SDS011;24269;51.894;4.622;2022-07-04T11:44:07;2.97;;;1.13;;
38499;SDS011;24269;51.894;4.622;2022-07-04T11:49:32;2.83;;;0.80;;
38499;SDS011;24269;51.894;4.622;2022-07-04T11:51:58;2.28;;;0.82;;
38499;SDS011;24269;51.894;4.622;2022-07-04T11:54:24;5.80;;;1.02;;
38499;SDS011;24269;51.894;4.622;2022-07-04T11:56:50;3.42;;;0.77;;
38499;SDS011;24269;51.894;4.622;2022-07-04T11:59:16;2.80;;;0.77;;
38499;SDS011;24269;51.894;4.622;2022-07-04T12:01:43;3.90;;;0.90;;
38499;SDS011;24269;51.894;4.622;2022-07-04T12:04:16;3.60;;;0.60;;
38499;SDS011;24269;51.894;4.622;2022-07-04T12:06:47;3.72;;;0.70;;
38499;SDS011;24269;51.894;4.622;2022-07-04T12:09:14;3.03;;;0.70;;
38499;SDS011;24269;51.894;4.622;2022-07-04T12:11:49;6.03;;;0.68;;
38499;SDS011;24269;51.894;4.622;2022-07-04T12:14:19;2.33;;;0.70;;
38499;SDS011;24269;51.894;4.622;2022-07-04T12:16:45;4.32;;;0.80;;
38499;SDS011;24269;51.894;4.622;2022-07-04T12:19:12;4.38;;;0.90;;
38499;SDS011;24269;51.894;4.622;2022-07-04T12:21:38;2.08;;;0.65;;
38499;SDS011;24269;51.894;4.622;2022-07-04T12:24:04;3.28;;;0.75;;
38499;SDS011;24269;51.894;4.622;2022-07-04T12:26:33;4.00;;;0.70;;
38499;SDS011;24269;51.894;4.622;2022-07-04T12:29:00;1.35;;;0.50;;
38499;SDS011;24269;51.894;4.622;2022-07-04T12:31:39;6.25;;;1.00;;
38499;SDS011;24269;51.894;4.622;2022-07-04T12:34:17;4.82;;;0.90;;
38499;SDS011;24269;51.894;4.622;2022-07-04T12:42:16;2.58;;;0.70;;
38499;SDS011;24269;51.894;4.622;2022-07-04T12:44:44;4.35;;;1.27;;
38499;SDS011;24269;51.894;4.622;2022-07-04T12:47:14;2.85;;;0.70;;
38499;SDS011;24269;51.894;4.622;2022-07-04T12:49:43;2.75;;;0.80;;
38499;SDS011;24269;51.894;4.622;2022-07-04T12:52:12;4.07;;;1.02;;
38499;SDS011;24269;51.894;4.622;2022-07-04T12:54:40;4.10;;;0.90;;
38499;SDS011;24269;51.894;4.622;2022-07-04T12:57:07;3.30;;;0.68;;
38499;SDS011;24269;51.894;4.622;2022-07-04T12:59:37;3.28;;;0.60;;
38499;SDS011;24269;51.894;4.622;2022-07-04T13:02:04;4.07;;;0.70;;
38499;SDS011;24269;51.894;4.622;2022-07-04T13:04:30;3.90;;;0.70;;
38499;SDS011;24269;51.894;4.622;2022-07-04T13:06:57;2.92;;;0.70;;
38499;SDS011;24269;51.894;4.622;2022-07-04T13:09:24;3.03;;;1.00;;
38499;SDS011;24269;51.894;4.622;2022-07-04T13:11:50;3.05;;;0.80;;
38499;SDS011;24269;51.894;4.622;2022-07-04T13:14:34;4.10;;;0.93;;
38499;SDS011;24269;51.894;4.622;2022-07-04T13:17:00;2.90;;;0.80;;
38499;SDS011;24269;51.894;4.622;2022-07-04T13:19:26;3.42;;;0.82;;
38499;SDS011;24269;51.894;4.622;2022-07-04T13:21:52;2.97;;;0.60;;
38499;SDS011;24269;51.894;4.622;2022-07-04T13:24:19;2.53;;;0.60;;
38499;SDS011;24269;51.894;4.622;2022-07-04T13:26:46;4.28;;;0.77;;
38499;SDS011;24269;51.894;4.622;2022-07-04T13:29:12;3.70;;;0.65;;
38499;SDS011;24269;51.894;4.622;2022-07-04T13:31:38;2.05;;;0.70;;
38499;SDS011;24269;51.894;4.622;2022-07-04T13:34:04;3.10;;;0.73;;
38499;SDS011;24269;51.894;4.622;2022-07-04T13:36:30;3.58;;;0.75;;
38499;SDS011;24269;51.894;4.622;2022-07-04T13:38:56;3.75;;;0.70;;
38499;SDS011;24269;51.894;4.622;2022-07-04T13:41:21;3.45;;;1.10;;
38499;SDS011;24269;51.894;4.622;2022-07-04T13:43:47;3.35;;;0.70;;
38499;SDS011;24269;51.894;4.622;2022-07-04T13:46:12;4.40;;;0.90;;
38499;SDS011;24269;51.894;4.622;2022-07-04T13:48:38;4.70;;;0.90;;
38499;SDS011;24269;51.894;4.622;2022-07-04T13:51:04;3.28;;;0.70;;
38499;SDS011;24269;51.894;4.622;2022-07-04T13:53:30;3.03;;;0.90;;
38499;SDS011;24269;51.894;4.622;2022-07-04T13:55:58;2.28;;;0.57;;
38499;SDS011;24269;51.894;4.622;2022-07-04T13:58:23;3.80;;;0.75;;
38499;SDS011;24269;51.894;4.622;2022-07-04T14:00:49;2.72;;;0.80;;
38499;SDS011;24269;51.894;4.622;2022-07-04T14:03:15;2.85;;;0.90;;
38499;SDS011;24269;51.894;4.622;2022-07-04T14:05:41;4.70;;;1.02;;
38499;SDS011;24269;51.894;4.622;2022-07-04T14:08:07;4.63;;;0.80;;
38499;SDS011;24269;51.894;4.622;2022-07-04T14:10:33;4.03;;;0.80;;
38499;SDS011;24269;51.894;4.622;2022-07-04T14:12:58;2.40;;;0.60;;
38499;SDS011;24269;51.894;4.622;2022-07-04T14:15:24;3.42;;;0.70;;
38499;SDS011;24269;51.894;4.622;2022-07-04T14:17:49;2.45;;;0.70;;
38499;SDS011;24269;51.894;4.622;2022-07-04T14:20:15;3.65;;;0.98;;
38499;SDS011;24269;51.894;4.622;2022-07-04T14:22:43;2.97;;;0.85;;
38499;SDS011;24269;51.894;4.622;2022-07-04T14:25:09;3.88;;;0.73;;
38499;SDS011;24269;51.894;4.622;2022-07-04T14:27:34;3.15;;;0.70;;
38499;SDS011;24269;51.894;4.622;2022-07-04T14:30:00;3.55;;;0.82;;
38499;SDS011;24269;51.894;4.622;2022-07-04T14:32:26;2.85;;;0.68;;
38499;SDS011;24269;51.894;4.622;2022-07-04T14:34:51;3.55;;;0.70;;
38499;SDS011;24269;51.894;4.622;2022-07-04T14:37:17;3.60;;;0.73;;
38499;SDS011;24269;51.894;4.622;2022-07-04T14:39:43;2.35;;;0.70;;
38499;SDS011;24269;51.894;4.622;2022-07-04T14:42:08;3.13;;;0.70;;
38499;SDS011;24269;51.894;4.622;2022-07-04T14:44:34;4.03;;;0.80;;
38499;SDS011;24269;51.894;4.622;2022-07-04T14:47:02;3.33;;;0.70;;
38499;SDS011;24269;51.894;4.622;2022-07-04T14:49:29;3.40;;;0.60;;
38499;SDS011;24269;51.894;4.622;2022-07-04T14:51:54;2.60;;;0.68;;
38499;SDS011;24269;51.894;4.622;2022-07-04T14:54:22;2.63;;;0.70;;
38499;SDS011;24269;51.894;4.622;2022-07-04T14:56:48;2.97;;;0.75;;
38499;SDS011;24269;51.894;4.622;2022-07-04T14:59:14;3.22;;;0.80;;
38499;SDS011;24269;51.894;4.622;2022-07-04T15:01:39;2.92;;;0.80;;
38499;SDS011;24269;51.894;4.622;2022-07-04T15:04:05;3.55;;;0.68;;
38499;SDS011;24269;51.894;4.622;2022-07-04T15:06:31;3.45;;;0.88;;
38499;SDS011;24269;51.894;4.622;2022-07-04T15:08:57;3.13;;;0.70;;
38499;SDS011;24269;51.894;4.622;2022-07-04T15:11:22;3.78;;;0.85;;
38499;SDS011;24269;51.894;4.622;2022-07-04T15:13:48;3.90;;;1.15;;
38499;SDS011;24269;51.894;4.622;2022-07-04T15:16:14;2.72;;;0.98;;